Terminal Aerodrome Forecast
Issued by NWS Oklahoma City, OK

Home | Current Version | Previous Version | Text Only | Print | Product List | Glossary On
Versions: 1 2 3 4 5 6 7 8 9 10 11 12 13 14 15 16 17 18 19 20 21 22 23 24 25 26 27
000
FTUS44 KOUN 300542
TAFOUN
TAF
KOUN 300542Z 3006/0106 27013KT 6SM BR OVC008
     FM300800 27010KT 5SM -RADZ OVC012
     FM301100 24015G25KT P6SM OVC015
     FM301600 27026G33KT P6SM OVC025
     FM010100 31015KT P6SM SCT030 BKN150=

USA.gov is the U.S. government's official web portal to all federal, state and local government web resources and services.